Time;durP1;ratioP1;P1;durP2;ratioP2;P2;SDS_P1;SDS_P2;PMS_P1;PMS_P2;Temp;Humidity;BMP_temperature;BMP_pressure;BME280_temperature;BME280_humidity;BME280_pressure;Samples;Min_cycle;Max_cycle;Signal;HPM_P1;HPM_P2
2022/11/17 00:02:48;;;;;;;1.70;1.60;;;;;;;;;;10494814;28;20214;-72
2022/11/17 00:07:49;;;;;;;2.05;1.52;;;;;;;;;;10496441;28;20216;-72
2022/11/17 00:23:46;;;;;;;2.53;1.88;;;;;;;;;;10464714;28;20218;-71
2022/11/17 00:28:50;;;;;;;3.40;3.10;;;;;;;;;;10471880;28;20255;-70
2022/11/17 00:34:03;;;;;;;2.30;2.15;;;;;;;;;;10463645;28;20214;-72
2022/11/17 00:39:05;;;;;;;6.22;2.95;;;;;;;;;;10463220;28;20740;-71
2022/11/17 00:44:06;;;;;;;2.33;2.22;;;;;;;;;;10466992;28;20725;-71
2022/11/17 00:49:08;;;;;;;3.00;2.80;;;;;;;;;;10462445;28;20201;-71
2022/11/17 00:54:10;;;;;;;3.63;3.33;;;;;;;;;;10452474;28;20207;-72
2022/11/17 00:59:11;;;;;;;2.88;2.60;;;;;;;;;;10453053;28;20215;-71
2022/11/17 01:04:14;;;;;;;4.18;3.08;;;;;;;;;;10464204;28;20306;-72
2022/11/17 01:09:15;;;;;;;2.53;2.33;;;;;;;;;;10450780;28;20217;-72
2022/11/17 01:14:17;;;;;;;2.45;2.33;;;;;;;;;;10464298;28;20218;-71
2022/11/17 01:19:19;;;;;;;5.57;3.40;;;;;;;;;;10480793;28;20615;-71
2022/11/17 01:24:20;;;;;;;3.25;2.65;;;;;;;;;;10508601;28;20210;-71
2022/11/17 01:29:21;;;;;;;2.78;2.58;;;;;;;;;;10490479;28;20271;-71
2022/11/17 01:34:22;;;;;;;2.65;2.42;;;;;;;;;;10508506;28;20214;-71
2022/11/17 01:39:26;;;;;;;3.50;2.92;;;;;;;;;;10507062;28;20877;-71
2022/11/17 01:44:47;;;;;;;5.25;2.60;;;;;;;;;;10504905;28;20241;-70
2022/11/17 01:49:54;;;;;;;3.33;3.05;;;;;;;;;;10502645;28;20766;-70
2022/11/17 01:54:56;;;;;;;3.45;2.53;;;;;;;;;;10505503;28;20296;-70
2022/11/17 02:00:00;;;;;;;2.85;2.65;;;;;;;;;;10505197;28;20221;-70
2022/11/17 02:05:20;;;;;;;4.03;3.60;;;;;;;;;;10495991;28;20657;-70
2022/11/17 02:10:21;;;;;;;2.83;2.67;;;;;;;;;;10507586;28;20213;-70
2022/11/17 02:15:23;;;;;;;3.20;2.90;;;;;;;;;;10500536;28;20264;-70
2022/11/17 02:20:39;;;;;;;3.20;2.95;;;;;;;;;;10488547;28;20259;-70
2022/11/17 02:26:08;;;;;;;4.43;3.13;;;;;;;;;;10492109;28;20869;-70
2022/11/17 02:31:26;;;;;;;3.80;2.92;;;;;;;;;;10503826;28;20222;-71
2022/11/17 02:37:05;;;;;;;2.72;2.50;;;;;;;;;;10502421;28;20222;-71
2022/11/17 02:42:09;;;;;;;4.60;2.92;;;;;;;;;;10341559;28;20216;-70
2022/11/17 02:47:18;;;;;;;2.88;2.75;;;;;;;;;;10340501;28;20614;-70
2022/11/17 02:52:19;;;;;;;2.42;2.33;;;;;;;;;;10340928;28;21133;-70
2022/11/17 02:57:29;;;;;;;3.00;2.80;;;;;;;;;;10339528;28;20219;-71
2022/11/17 03:02:36;;;;;;;3.00;2.70;;;;;;;;;;10339549;28;20216;-72
2022/11/17 03:07:47;;;;;;;5.38;3.47;;;;;;;;;;10340234;28;20224;-71
2022/11/17 03:13:00;;;;;;;3.72;3.35;;;;;;;;;;10438295;28;20688;-70
2022/11/17 03:18:17;;;;;;;4.10;3.22;;;;;;;;;;10502649;28;20221;-71
2022/11/17 03:23:22;;;;;;;4.35;3.85;;;;;;;;;;10503967;28;20205;-71
2022/11/17 03:28:26;;;;;;;4.30;3.88;;;;;;;;;;10495733;28;20900;-72
2022/11/17 03:33:28;;;;;;;5.47;4.38;;;;;;;;;;10515703;28;20681;-69
2022/11/17 03:38:32;;;;;;;5.05;4.50;;;;;;;;;;10516038;28;20717;-70
2022/11/17 03:43:34;;;;;;;6.88;4.97;;;;;;;;;;10494581;28;20340;-70
2022/11/17 03:48:39;;;;;;;9.10;5.22;;;;;;;;;;10498225;28;20700;-70
2022/11/17 03:53:41;;;;;;;5.72;4.72;;;;;;;;;;10515272;28;20209;-70
2022/11/17 03:59:02;;;;;;;7.75;4.70;;;;;;;;;;10512309;28;20217;-71
2022/11/17 04:04:03;;;;;;;5.85;5.25;;;;;;;;;;10497414;28;20221;-71
2022/11/17 04:09:04;;;;;;;6.65;5.13;;;;;;;;;;10511532;28;20217;-70
2022/11/17 04:19:25;;;;;;;8.25;5.80;;;;;;;;;;10510338;28;20229;-71
2022/11/17 04:24:26;;;;;;;10.80;6.75;;;;;;;;;;10511184;28;20658;-70
2022/11/17 04:29:27;;;;;;;10.13;4.97;;;;;;;;;;10516382;28;20219;-70
2022/11/17 04:34:28;;;;;;;11.15;6.82;;;;;;;;;;10493253;28;20221;-71
2022/11/17 04:39:29;;;;;;;10.50;6.45;;;;;;;;;;10488162;28;20221;-71
2022/11/17 04:44:31;;;;;;;10.95;6.93;;;;;;;;;;10501729;28;20218;-69
2022/11/17 04:49:32;;;;;;;12.23;6.50;;;;;;;;;;10500726;28;20201;-70
2022/11/17 04:54:34;;;;;;;13.90;6.88;;;;;;;;;;10492092;28;20219;-70
2022/11/17 04:59:35;;;;;;;12.05;7.82;;;;;;;;;;10501816;28;20217;-70
2022/11/17 05:04:55;;;;;;;14.10;6.70;;;;;;;;;;10498623;28;20225;-71
2022/11/17 05:09:56;;;;;;;14.75;8.52;;;;;;;;;;10497550;28;20210;-71
2022/11/17 05:14:57;;;;;;;12.80;7.78;;;;;;;;;;10501719;28;20245;-71
2022/11/17 05:19:58;;;;;;;10.80;8.10;;;;;;;;;;10486291;28;20607;-71
2022/11/17 05:24:59;;;;;;;11.82;5.57;;;;;;;;;;10471314;28;20226;-70
2022/11/17 05:30:02;;;;;;;14.23;8.60;;;;;;;;;;10490232;28;20244;-70
2022/11/17 05:35:03;;;;;;;12.48;7.55;;;;;;;;;;10502222;28;20856;-71
2022/11/17 05:40:04;;;;;;;14.23;7.75;;;;;;;;;;10463212;28;20649;-71
2022/11/17 05:45:06;;;;;;;15.63;7.85;;;;;;;;;;10494974;28;20208;-72
2022/11/17 05:50:07;;;;;;;13.88;7.18;;;;;;;;;;10485655;28;20257;-70
2022/11/17 05:55:08;;;;;;;14.88;8.63;;;;;;;;;;10471129;28;20174;-70
2022/11/17 06:00:10;;;;;;;10.68;6.60;;;;;;;;;;10494312;28;20316;-71
2022/11/17 06:05:17;;;;;;;14.35;8.00;;;;;;;;;;10499330;28;20844;-71
2022/11/17 06:10:18;;;;;;;13.88;7.60;;;;;;;;;;10497417;28;20180;-71
2022/11/17 06:15:19;;;;;;;10.45;7.22;;;;;;;;;;10479836;28;20701;-71
2022/11/17 06:20:24;;;;;;;11.35;7.00;;;;;;;;;;10460776;28;20237;-70
2022/11/17 06:25:26;;;;;;;11.52;7.60;;;;;;;;;;10472290;28;20684;-71
2022/11/17 06:30:28;;;;;;;14.52;8.27;;;;;;;;;;10467725;28;20217;-71
2022/11/17 06:35:32;;;;;;;9.25;5.78;;;;;;;;;;10487334;28;20210;-70
2022/11/17 06:40:33;;;;;;;11.25;7.82;;;;;;;;;;10481620;28;20210;-71
2022/11/17 06:45:36;;;;;;;12.68;7.65;;;;;;;;;;10485729;28;20904;-71
2022/11/17 06:50:37;;;;;;;9.75;6.50;;;;;;;;;;10486616;28;20640;-71
2022/11/17 06:55:38;;;;;;;11.05;6.35;;;;;;;;;;10485059;28;20209;-70
2022/11/17 07:00:39;;;;;;;9.57;6.32;;;;;;;;;;10493176;28;20293;-70
2022/11/17 07:05:41;;;;;;;10.00;6.28;;;;;;;;;;10495318;28;20221;-71
2022/11/17 07:10:42;;;;;;;9.32;7.25;;;;;;;;;;10485041;28;20263;-71
2022/11/17 07:15:43;;;;;;;14.10;7.47;;;;;;;;;;10483800;28;20216;-71
2022/11/17 07:20:44;;;;;;;14.95;7.72;;;;;;;;;;10492694;28;20251;-70
2022/11/17 07:25:45;;;;;;;12.45;7.15;;;;;;;;;;10495520;28;20316;-71
2022/11/17 07:30:46;;;;;;;7.47;4.93;;;;;;;;;;10494228;28;20222;-70
2022/11/17 07:35:48;;;;;;;7.10;5.10;;;;;;;;;;10482693;28;20220;-70
2022/11/17 07:40:49;;;;;;;5.03;4.53;;;;;;;;;;10491578;28;20331;-71
2022/11/17 07:45:51;;;;;;;7.43;5.10;;;;;;;;;;10497117;28;20262;-71
2022/11/17 07:50:52;;;;;;;11.77;6.35;;;;;;;;;;10482196;28;20704;-70
2022/11/17 07:55:53;;;;;;;10.48;5.72;;;;;;;;;;10477169;28;20298;-71
2022/11/17 08:00:54;;;;;;;8.27;6.20;;;;;;;;;;10483776;28;20235;-71
2022/11/17 08:05:56;;;;;;;8.20;5.20;;;;;;;;;;10496814;28;20703;-70
2022/11/17 08:11:07;;;;;;;8.60;5.88;;;;;;;;;;10478949;28;20225;-70
2022/11/17 08:16:09;;;;;;;12.38;6.55;;;;;;;;;;10482612;28;20213;-74
2022/11/17 08:21:12;;;;;;;10.52;6.13;;;;;;;;;;10494344;28;20217;-73
2022/11/17 08:26:13;;;;;;;11.70;7.65;;;;;;;;;;10501565;28;20228;-73
2022/11/17 08:31:14;;;;;;;7.60;5.20;;;;;;;;;;10504464;28;20338;-71
2022/11/17 08:36:16;;;;;;;9.57;6.38;;;;;;;;;;10496328;28;20221;-70
2022/11/17 08:41:18;;;;;;;10.77;6.47;;;;;;;;;;10486465;28;20210;-71
2022/11/17 08:46:19;;;;;;;7.97;5.38;;;;;;;;;;10474036;28;21126;-71
2022/11/17 08:51:20;;;;;;;6.50;5.32;;;;;;;;;;10470450;28;21223;-71
2022/11/17 08:56:22;;;;;;;7.07;4.45;;;;;;;;;;10484926;28;20249;-69
2022/11/17 09:01:23;;;;;;;9.60;4.40;;;;;;;;;;10495136;28;20209;-71
2022/11/17 09:06:24;;;;;;;4.43;3.75;;;;;;;;;;10487334;28;20347;-73
2022/11/17 09:11:25;;;;;;;5.93;5.25;;;;;;;;;;10507618;28;20301;-73
2022/11/17 09:16:26;;;;;;;12.60;5.35;;;;;;;;;;10468958;28;20271;-70
2022/11/17 09:21:27;;;;;;;5.00;4.32;;;;;;;;;;10490364;28;20781;-69
2022/11/17 09:26:29;;;;;;;5.25;3.30;;;;;;;;;;10477622;28;20304;-68
2022/11/17 09:31:30;;;;;;;8.80;5.25;;;;;;;;;;10489732;28;20788;-68
2022/11/17 09:36:31;;;;;;;7.10;5.13;;;;;;;;;;10500930;28;21988;-68
2022/11/17 09:41:40;;;;;;;11.57;4.68;;;;;;;;;;10495131;28;20329;-67
2022/11/17 09:46:56;;;;;;;12.77;7.57;;;;;;;;;;10499849;28;20214;-68
2022/11/17 09:51:59;;;;;;;10.43;6.30;;;;;;;;;;10494073;28;20735;-69
2022/11/17 09:57:01;;;;;;;8.45;4.88;;;;;;;;;;10496797;28;20209;-69
2022/11/17 10:02:02;;;;;;;5.55;4.30;;;;;;;;;;10481614;28;20224;-69
2022/11/17 10:07:05;;;;;;;5.80;4.72;;;;;;;;;;10502776;28;20252;-68
2022/11/17 10:12:17;;;;;;;7.18;5.05;;;;;;;;;;10494640;28;20244;-69
2022/11/17 10:17:18;;;;;;;7.38;4.68;;;;;;;;;;10496175;28;20704;-69
2022/11/17 10:22:27;;;;;;;9.27;6.15;;;;;;;;;;10480471;28;20249;-69
2022/11/17 10:27:33;;;;;;;5.97;4.40;;;;;;;;;;10502666;28;20370;-69
2022/11/17 10:32:35;;;;;;;4.47;4.07;;;;;;;;;;10478289;28;20264;-69
2022/11/17 10:37:36;;;;;;;7.18;4.60;;;;;;;;;;10489038;28;21621;-70
2022/11/17 10:42:37;;;;;;;10.52;8.15;;;;;;;;;;10479435;28;20389;-70
2022/11/17 10:47:40;;;;;;;6.47;4.03;;;;;;;;;;10484334;28;20225;-70
2022/11/17 10:52:41;;;;;;;3.40;2.60;;;;;;;;;;10493770;28;20225;-73
2022/11/17 10:57:44;;;;;;;4.07;3.58;;;;;;;;;;10487069;28;20596;-71
2022/11/17 11:02:45;;;;;;;4.03;3.42;;;;;;;;;;10502884;28;20221;-69
2022/11/17 11:07:47;;;;;;;2.92;2.83;;;;;;;;;;10463429;28;20305;-72
2022/11/17 11:12:55;;;;;;;3.70;3.40;;;;;;;;;;10497966;28;20771;-70
2022/11/17 11:17:56;;;;;;;6.00;4.82;;;;;;;;;;10480959;28;20257;-70
2022/11/17 11:23:08;;;;;;;5.88;3.55;;;;;;;;;;10480644;28;20251;-70
2022/11/17 11:28:10;;;;;;;4.28;3.88;;;;;;;;;;10503314;28;20230;-71
2022/11/17 11:33:22;;;;;;;3.33;2.72;;;;;;;;;;10464966;28;20210;-70
2022/11/17 11:38:29;;;;;;;3.25;2.95;;;;;;;;;;10498226;28;20355;-69
2022/11/17 11:43:44;;;;;;;7.47;4.30;;;;;;;;;;10494521;28;20236;-69
2022/11/17 11:48:47;;;;;;;3.40;3.10;;;;;;;;;;10503027;28;20206;-69
2022/11/17 11:53:57;;;;;;;3.47;3.17;;;;;;;;;;10504412;28;20586;-69
2022/11/17 11:59:04;;;;;;;3.63;2.85;;;;;;;;;;10483821;28;20210;-69
2022/11/17 12:04:12;;;;;;;2.63;2.42;;;;;;;;;;10500484;28;20872;-70
2022/11/17 12:09:22;;;;;;;2.88;2.35;;;;;;;;;;10485640;28;20205;-68
2022/11/17 12:14:23;;;;;;;3.63;3.33;;;;;;;;;;10502426;28;20214;-69
2022/11/17 12:19:43;;;;;;;3.38;2.78;;;;;;;;;;10504580;28;20264;-68
2022/11/17 12:24:45;;;;;;;9.40;7.43;;;;;;;;;;10490706;28;20300;-68
2022/11/17 12:29:46;;;;;;;3.53;3.30;;;;;;;;;;10504407;28;20211;-68
2022/11/17 12:35:08;;;;;;;5.38;4.97;;;;;;;;;;10489326;28;20754;-68
2022/11/17 12:40:29;;;;;;;3.75;3.42;;;;;;;;;;10493359;28;20350;-69
2022/11/17 12:45:50;;;;;;;6.35;4.75;;;;;;;;;;10482557;28;20224;-68
2022/11/17 12:51:10;;;;;;;5.80;4.57;;;;;;;;;;10501733;28;20891;-69
2022/11/17 12:56:18;;;;;;;5.93;4.60;;;;;;;;;;10485921;28;20216;-70
2022/11/17 13:01:24;;;;;;;3.47;3.05;;;;;;;;;;10487044;28;20256;-68
2022/11/17 13:06:25;;;;;;;5.60;4.00;;;;;;;;;;10495029;28;20702;-68
2022/11/17 13:11:27;;;;;;;3.55;3.33;;;;;;;;;;10500390;28;20209;-68
2022/11/17 13:16:28;;;;;;;3.88;2.95;;;;;;;;;;10488122;28;20209;-69
2022/11/17 13:21:30;;;;;;;4.43;3.33;;;;;;;;;;10500535;28;20324;-69
2022/11/17 13:26:37;;;;;;;4.20;3.28;;;;;;;;;;10501748;28;20241;-69
2022/11/17 13:31:39;;;;;;;3.40;2.88;;;;;;;;;;10488078;28;20209;-69
2022/11/17 13:36:56;;;;;;;4.25;2.78;;;;;;;;;;10490271;28;20209;-69
2022/11/17 13:42:00;;;;;;;3.50;3.17;;;;;;;;;;10475577;28;20890;-70
2022/11/17 13:47:17;;;;;;;3.38;3.08;;;;;;;;;;10497551;28;20336;-69
2022/11/17 13:52:27;;;;;;;4.57;3.45;;;;;;;;;;10480054;28;20618;-68
2022/11/17 13:57:29;;;;;;;3.75;2.80;;;;;;;;;;10488333;28;20275;-67
2022/11/17 14:02:30;;;;;;;3.78;3.40;;;;;;;;;;10507041;28;20324;-69
2022/11/17 14:07:35;;;;;;;3.65;3.45;;;;;;;;;;10502911;28;20226;-67
2022/11/17 14:12:37;;;;;;;4.53;4.22;;;;;;;;;;10496683;28;20304;-68
2022/11/17 14:17:38;;;;;;;3.03;2.92;;;;;;;;;;10482293;28;20206;-66
2022/11/17 14:22:40;;;;;;;3.28;3.08;;;;;;;;;;10501043;28;20242;-68
2022/11/17 14:27:41;;;;;;;4.10;3.38;;;;;;;;;;10495179;28;20693;-68
2022/11/17 14:32:42;;;;;;;3.30;3.03;;;;;;;;;;10474913;28;20982;-68
2022/11/17 14:37:43;;;;;;;3.67;3.38;;;;;;;;;;10498826;28;20213;-68
2022/11/17 14:42:45;;;;;;;5.25;4.70;;;;;;;;;;10495695;28;20217;-68
2022/11/17 14:47:46;;;;;;;3.47;3.22;;;;;;;;;;10497800;28;20253;-70
2022/11/17 14:52:47;;;;;;;3.95;3.67;;;;;;;;;;10499008;28;20296;-71
2022/11/17 14:57:48;;;;;;;3.13;2.83;;;;;;;;;;10494794;28;20224;-69
2022/11/17 15:02:50;;;;;;;2.92;2.72;;;;;;;;;;10495982;28;20237;-69
2022/11/17 15:07:51;;;;;;;2.38;2.22;;;;;;;;;;10489948;28;20701;-69
2022/11/17 15:12:52;;;;;;;2.75;2.55;;;;;;;;;;10477892;28;20210;-69
2022/11/17 15:18:18;;;;;;;4.50;2.65;;;;;;;;;;10500252;28;20345;-69
2022/11/17 15:23:19;;;;;;;3.15;2.95;;;;;;;;;;10464774;28;20615;-70
2022/11/17 15:28:20;;;;;;;2.00;1.90;;;;;;;;;;10490234;28;20256;-69
2022/11/17 15:33:21;;;;;;;3.15;2.95;;;;;;;;;;10492637;28;20297;-69
2022/11/17 15:38:22;;;;;;;2.88;2.67;;;;;;;;;;10469114;28;20764;-70
2022/11/17 15:43:27;;;;;;;3.58;2.67;;;;;;;;;;10471790;28;20315;-68
2022/11/17 15:48:32;;;;;;;3.38;3.10;;;;;;;;;;10467350;28;20228;-70
2022/11/17 15:53:35;;;;;;;3.05;2.85;;;;;;;;;;10467407;28;22896;-69
2022/11/17 15:58:36;;;;;;;3.17;2.88;;;;;;;;;;10497444;28;20295;-69
2022/11/17 16:03:38;;;;;;;3.17;2.95;;;;;;;;;;10478593;28;20591;-70
2022/11/17 16:08:39;;;;;;;3.97;3.67;;;;;;;;;;10495688;28;20218;-70
2022/11/17 16:13:40;;;;;;;3.50;2.78;;;;;;;;;;10490498;28;20574;-70
2022/11/17 16:18:42;;;;;;;3.35;3.15;;;;;;;;;;10477477;28;20222;-70
2022/11/17 16:23:44;;;;;;;3.30;3.00;;;;;;;;;;10471583;28;20331;-70
2022/11/17 16:28:48;;;;;;;3.00;2.80;;;;;;;;;;10488663;28;20209;-71
2022/11/17 16:33:51;;;;;;;4.55;4.03;;;;;;;;;;10481799;28;20268;-71
2022/11/17 16:38:53;;;;;;;3.45;3.25;;;;;;;;;;10488147;28;20208;-70
2022/11/17 16:43:55;;;;;;;4.32;3.92;;;;;;;;;;10472296;28;20586;-71
2022/11/17 16:49:04;;;;;;;3.97;3.78;;;;;;;;;;10505693;28;20213;-69
2022/11/17 16:54:06;;;;;;;4.65;3.60;;;;;;;;;;10499063;28;20588;-70
2022/11/17 16:59:09;;;;;;;3.13;2.92;;;;;;;;;;10490793;28;20605;-67
2022/11/17 17:04:11;;;;;;;2.75;2.55;;;;;;;;;;10487975;28;20240;-69
2022/11/17 17:09:13;;;;;;;2.90;2.63;;;;;;;;;;10497292;28;20995;-69
2022/11/17 17:14:14;;;;;;;5.63;2.95;;;;;;;;;;10479154;28;20218;-69
2022/11/17 17:19:15;;;;;;;3.58;3.08;;;;;;;;;;10469823;28;20287;-72
2022/11/17 17:24:17;;;;;;;3.78;3.30;;;;;;;;;;10494673;28;20275;-71
2022/11/17 17:29:18;;;;;;;4.03;3.70;;;;;;;;;;10498442;28;20704;-72
2022/11/17 17:34:19;;;;;;;3.42;3.13;;;;;;;;;;10485427;28;20683;-70
2022/11/17 17:39:20;;;;;;;3.67;3.38;;;;;;;;;;10497314;28;20220;-71
2022/11/17 17:44:21;;;;;;;4.85;3.90;;;;;;;;;;10497477;28;20354;-71
2022/11/17 17:49:22;;;;;;;3.72;3.42;;;;;;;;;;10501583;28;20300;-71
2022/11/17 17:54:24;;;;;;;5.43;4.93;;;;;;;;;;10485108;28;20311;-72
2022/11/17 17:59:25;;;;;;;3.35;3.15;;;;;;;;;;10492646;28;20234;-70
2022/11/17 18:04:27;;;;;;;4.05;3.75;;;;;;;;;;10497590;28;20299;-70
2022/11/17 18:09:28;;;;;;;3.45;3.10;;;;;;;;;;10502053;28;20753;-71
2022/11/17 18:14:29;;;;;;;3.53;3.33;;;;;;;;;;10488376;28;20247;-70
2022/11/17 18:19:31;;;;;;;4.07;2.63;;;;;;;;;;10481881;28;20236;-70
2022/11/17 18:24:32;;;;;;;3.22;3.13;;;;;;;;;;10498594;28;20270;-70
2022/11/17 18:29:33;;;;;;;3.80;2.97;;;;;;;;;;10499933;28;20210;-71
2022/11/17 18:34:34;;;;;;;5.28;4.53;;;;;;;;;;10488643;28;20300;-70
2022/11/17 18:39:37;;;;;;;5.88;4.20;;;;;;;;;;10498179;28;20296;-71
2022/11/17 18:44:38;;;;;;;4.18;3.78;;;;;;;;;;10503965;28;20218;-69
2022/11/17 18:49:39;;;;;;;4.20;3.80;;;;;;;;;;10497952;28;20700;-69
2022/11/17 18:54:40;;;;;;;3.40;3.10;;;;;;;;;;10486485;28;20214;-71
2022/11/17 18:59:41;;;;;;;3.92;3.63;;;;;;;;;;10491536;28;20300;-68
2022/11/17 19:04:42;;;;;;;4.07;3.70;;;;;;;;;;10503030;28;20221;-69
2022/11/17 19:09:43;;;;;;;4.22;3.92;;;;;;;;;;10502424;28;20220;-71
2022/11/17 19:14:44;;;;;;;3.92;3.63;;;;;;;;;;10498171;28;20214;-70
2022/11/17 19:19:46;;;;;;;3.17;2.97;;;;;;;;;;10467447;28;20232;-69
2022/11/17 19:24:47;;;;;;;3.20;3.00;;;;;;;;;;10494495;28;20216;-69
2022/11/17 19:29:48;;;;;;;3.13;2.92;;;;;;;;;;10500566;28;20318;-69
2022/11/17 19:34:49;;;;;;;2.05;1.80;;;;;;;;;;10494165;28;20213;-69
2022/11/17 19:39:50;;;;;;;3.45;3.15;;;;;;;;;;10497447;28;20674;-72
2022/11/17 19:44:51;;;;;;;4.07;3.45;;;;;;;;;;10497838;28;20229;-69
2022/11/17 19:49:52;;;;;;;4.72;4.10;;;;;;;;;;10485026;28;20201;-69
2022/11/17 19:54:53;;;;;;;4.03;3.65;;;;;;;;;;10466186;28;20210;-68
2022/11/17 19:59:54;;;;;;;4.60;4.05;;;;;;;;;;10472194;28;20206;-68
2022/11/17 20:04:55;;;;;;;4.22;3.60;;;;;;;;;;10480687;28;20217;-69
2022/11/17 20:09:57;;;;;;;3.50;3.30;;;;;;;;;;10495669;28;20201;-69
2022/11/17 20:14:58;;;;;;;4.13;3.72;;;;;;;;;;10481657;28;20310;-71
2022/11/17 20:19:59;;;;;;;24.92;10.82;;;;;;;;;;10506434;28;20660;-70
2022/11/17 20:25:00;;;;;;;5.72;4.97;;;;;;;;;;10493074;28;20236;-70
2022/11/17 20:30:01;;;;;;;3.90;3.60;;;;;;;;;;10506185;28;20264;-70
2022/11/17 20:35:02;;;;;;;4.03;3.63;;;;;;;;;;10482670;28;20305;-70
2022/11/17 20:40:04;;;;;;;3.45;3.25;;;;;;;;;;10489086;28;20186;-68
2022/11/17 20:45:05;;;;;;;4.63;3.28;;;;;;;;;;10499606;28;20218;-68
2022/11/17 20:50:06;;;;;;;3.40;3.00;;;;;;;;;;10498075;28;20261;-69
2022/11/17 20:55:07;;;;;;;3.53;3.33;;;;;;;;;;10504021;28;20178;-70
2022/11/17 21:00:09;;;;;;;3.35;3.08;;;;;;;;;;10485071;28;20167;-70
2022/11/17 21:05:10;;;;;;;3.65;3.35;;;;;;;;;;10499287;28;20247;-70
2022/11/17 21:10:11;;;;;;;3.78;3.47;;;;;;;;;;10490598;28;20185;-72
2022/11/17 21:15:13;;;;;;;4.03;3.72;;;;;;;;;;10487524;28;20229;-70
2022/11/17 21:20:14;;;;;;;4.53;4.00;;;;;;;;;;10501096;28;20245;-72
2022/11/17 21:25:15;;;;;;;3.40;3.10;;;;;;;;;;10490530;28;20193;-72
2022/11/17 21:30:16;;;;;;;3.40;3.17;;;;;;;;;;10488487;28;20175;-71
2022/11/17 21:35:18;;;;;;;5.03;3.53;;;;;;;;;;10501886;28;20177;-70
2022/11/17 21:40:19;;;;;;;3.05;2.80;;;;;;;;;;10481690;28;20638;-71
2022/11/17 21:45:20;;;;;;;4.70;3.33;;;;;;;;;;10489592;28;20205;-71
2022/11/17 21:50:21;;;;;;;3.17;2.97;;;;;;;;;;10499950;28;21797;-71
2022/11/17 21:55:22;;;;;;;3.00;2.80;;;;;;;;;;10501210;28;20220;-71
2022/11/17 22:00:23;;;;;;;3.50;3.10;;;;;;;;;;10498913;28;20261;-71
2022/11/17 22:05:25;;;;;;;2.95;2.83;;;;;;;;;;10487374;28;20241;-71
2022/11/17 22:10:26;;;;;;;3.00;2.80;;;;;;;;;;10500152;28;20213;-71
2022/11/17 22:15:27;;;;;;;3.85;3.38;;;;;;;;;;10480017;28;20674;-70
2022/11/17 22:20:28;;;;;;;5.22;4.22;;;;;;;;;;10463041;28;20230;-71
2022/11/17 22:25:29;;;;;;;3.58;3.28;;;;;;;;;;10458914;28;20314;-71
2022/11/17 22:30:30;;;;;;;4.97;4.00;;;;;;;;;;10444458;28;20666;-70
2022/11/17 22:35:31;;;;;;;3.90;3.50;;;;;;;;;;10439316;28;20229;-70
2022/11/17 22:40:33;;;;;;;2.53;2.33;;;;;;;;;;10456812;28;20217;-71
2022/11/17 22:45:36;;;;;;;5.90;4.28;;;;;;;;;;10454101;28;20327;-70
2022/11/17 22:50:38;;;;;;;5.80;3.30;;;;;;;;;;10454668;28;20210;-70
2022/11/17 22:55:39;;;;;;;4.03;3.70;;;;;;;;;;10459081;28;20214;-70
2022/11/17 23:00:40;;;;;;;4.25;3.90;;;;;;;;;;10453653;28;20709;-69
2022/11/17 23:05:41;;;;;;;3.83;3.47;;;;;;;;;;10458473;28;20222;-71
2022/11/17 23:10:43;;;;;;;4.40;3.53;;;;;;;;;;10458520;28;20264;-70
2022/11/17 23:15:44;;;;;;;4.65;3.85;;;;;;;;;;10427098;28;20677;-71
2022/11/17 23:20:45;;;;;;;4.93;3.72;;;;;;;;;;10486495;28;20278;-71
2022/11/17 23:25:46;;;;;;;4.20;3.70;;;;;;;;;;10496761;28;20222;-70
2022/11/17 23:30:47;;;;;;;5.38;4.13;;;;;;;;;;10498731;28;20678;-70
2022/11/17 23:35:48;;;;;;;5.40;4.07;;;;;;;;;;10500223;28;20209;-71
2022/11/17 23:40:51;;;;;;;4.50;4.10;;;;;;;;;;10493439;28;20221;-71
2022/11/17 23:45:52;;;;;;;4.20;3.80;;;;;;;;;;10504931;28;21000;-71
2022/11/17 23:50:53;;;;;;;5.22;4.28;;;;;;;;;;10509120;28;20209;-71
2022/11/17 23:55:54;;;;;;;4.07;3.70;;;;;;;;;;10494814;28;20209;-71
